createdAt,value
2023-02-23T00:01:15.644Z,8.70
2023-02-23T00:03:43.873Z,9.53
2023-02-23T00:06:12.158Z,9.93
2023-02-23T00:08:39.675Z,9.30
2023-02-23T00:11:08.211Z,11.47
2023-02-23T00:13:38.378Z,8.20
2023-02-23T00:16:07.427Z,11.67
2023-02-23T00:18:45.029Z,11.67
2023-02-23T00:21:24.318Z,10.23
2023-02-23T00:23:53.076Z,12.60
2023-02-23T00:26:21.170Z,10.83
2023-02-23T00:28:51.062Z,12.33
2023-02-23T00:31:19.295Z,12.23
2023-02-23T00:33:47.057Z,11.70
2023-02-23T00:36:15.679Z,11.23
2023-02-23T00:38:45.938Z,12.97
2023-02-23T00:41:17.028Z,11.00
2023-02-23T00:43:47.513Z,14.20
2023-02-23T00:46:17.956Z,13.77
2023-02-23T00:48:45.998Z,11.37
2023-02-23T00:51:13.703Z,13.13
2023-02-23T00:53:41.326Z,13.70
2023-02-23T00:56:09.366Z,9.90
2023-02-23T00:58:36.916Z,12.20
2023-02-23T01:01:06.658Z,11.70
2023-02-23T01:03:35.764Z,12.03
2023-02-23T01:06:06.426Z,11.53
2023-02-23T01:08:34.624Z,11.00
2023-02-23T01:11:07.295Z,11.80
2023-02-23T01:13:35.095Z,10.50
2023-02-23T01:16:05.097Z,12.20
2023-02-23T01:18:34.964Z,12.23
2023-02-23T01:21:05.729Z,12.53
2023-02-23T01:23:33.276Z,9.97
2023-02-23T01:26:00.965Z,12.67
2023-02-23T01:28:28.425Z,11.70
2023-02-23T01:30:55.949Z,11.47
2023-02-23T01:33:23.527Z,13.57
2023-02-23T01:35:58.247Z,10.33
2023-02-23T01:38:27.209Z,12.33
2023-02-23T01:40:54.762Z,13.03
2023-02-23T01:43:26.049Z,12.30
2023-02-23T01:45:55.158Z,10.63
2023-02-23T01:48:24.036Z,11.17
2023-02-23T01:50:54.221Z,9.60
2023-02-23T01:53:22.713Z,16.20
2023-02-23T01:55:54.998Z,11.27
2023-02-23T01:58:23.730Z,11.47
2023-02-23T02:00:54.395Z,11.80
2023-02-23T02:03:25.613Z,12.40
2023-02-23T02:05:53.512Z,10.07
2023-02-23T02:08:24.259Z,18.20
2023-02-23T02:10:56.052Z,11.03
2023-02-23T02:13:26.088Z,11.97
2023-02-23T02:16:08.902Z,9.67
2023-02-23T02:18:42.145Z,10.53
2023-02-23T02:21:17.911Z,125.47
2023-02-23T02:23:57.298Z,10.07
2023-02-23T02:26:31.479Z,11.70
2023-02-23T02:29:21.044Z,12.53
2023-02-23T02:31:59.522Z,11.90
2023-02-23T02:34:38.006Z,12.10
2023-02-23T02:37:12.878Z,9.97
2023-02-23T02:39:46.928Z,12.20
2023-02-23T02:42:19.053Z,11.37
2023-02-23T02:44:51.753Z,11.90
2023-02-23T02:47:21.703Z,10.00
2023-02-23T02:49:52.010Z,10.63
2023-02-23T02:52:25.225Z,10.53
2023-02-23T02:54:54.260Z,13.23
2023-02-23T02:57:23.722Z,11.57
2023-02-23T03:00:08.778Z,11.03
2023-02-23T03:02:58.388Z,9.67
2023-02-23T03:05:44.676Z,14.23
2023-02-23T03:08:36.142Z,11.23
2023-02-23T03:11:22.182Z,12.37
2023-02-23T03:14:12.486Z,10.30
2023-02-23T03:17:01.978Z,14.03
2023-02-23T03:19:48.979Z,13.17
2023-02-23T03:22:38.218Z,13.73
2023-02-23T03:25:27.364Z,13.30
2023-02-23T03:28:14.734Z,13.93
2023-02-23T03:31:06.827Z,13.20
2023-02-23T03:33:56.238Z,13.40
2023-02-23T03:36:43.791Z,14.13
2023-02-23T03:39:31.564Z,13.07
2023-02-23T03:42:20.974Z,13.53
2023-02-23T03:45:07.063Z,12.70
2023-02-23T03:47:53.906Z,16.23
2023-02-23T03:50:41.606Z,17.80
2023-02-23T03:53:28.294Z,15.67
2023-02-23T03:56:14.933Z,15.27
2023-02-23T03:59:04.472Z,14.30
2023-02-23T04:01:50.507Z,15.10
2023-02-23T04:04:35.665Z,15.60
2023-02-23T04:07:21.904Z,15.57
2023-02-23T04:10:07.050Z,15.77
2023-02-23T04:12:55.858Z,13.50
2023-02-23T04:15:27.988Z,12.97
2023-02-23T04:17:55.504Z,12.73
2023-02-23T04:20:23.739Z,11.93
2023-02-23T04:22:51.496Z,13.57
2023-02-23T04:25:20.344Z,13.00
2023-02-23T04:27:47.789Z,13.60
2023-02-23T04:30:15.593Z,12.60
2023-02-23T04:32:46.269Z,13.93
2023-02-23T04:35:14.184Z,14.53
2023-02-23T04:37:41.755Z,14.13
2023-02-23T04:40:10.911Z,12.20
2023-02-23T04:42:39.144Z,13.77
2023-02-23T04:45:07.172Z,14.23
2023-02-23T04:47:35.092Z,13.63
2023-02-23T04:50:04.533Z,12.37
2023-02-23T04:52:32.796Z,14.40
2023-02-23T04:55:00.240Z,14.90
2023-02-23T04:57:28.983Z,13.10
2023-02-23T04:59:56.654Z,13.37
2023-02-23T05:02:24.376Z,12.43
2023-02-23T05:04:51.951Z,13.50
2023-02-23T05:07:20.829Z,13.33
2023-02-23T05:09:48.296Z,11.60
2023-02-23T05:12:16.223Z,12.60
2023-02-23T05:14:43.696Z,15.50
2023-02-23T05:17:11.204Z,12.43
2023-02-23T05:19:38.891Z,11.63
2023-02-23T05:22:06.580Z,12.30
2023-02-23T05:24:36.707Z,11.50
2023-02-23T05:27:04.271Z,15.53
2023-02-23T05:29:31.823Z,15.03
2023-02-23T05:31:59.446Z,15.40
2023-02-23T05:34:27.234Z,17.70
2023-02-23T05:36:55.283Z,17.80
2023-02-23T05:39:23.069Z,18.50
2023-02-23T05:41:52.595Z,18.80
2023-02-23T05:44:20.396Z,18.90
2023-02-23T05:46:48.727Z,21.40
2023-02-23T05:49:16.224Z,18.87
2023-02-23T05:51:43.651Z,20.50
2023-02-23T05:54:11.480Z,20.67
2023-02-23T05:56:39.298Z,21.30
2023-02-23T05:59:08.151Z,23.77
2023-02-23T06:01:36.019Z,24.30
2023-02-23T06:04:05.273Z,24.80
2023-02-23T06:06:33.762Z,23.80
2023-02-23T06:09:01.687Z,19.93
2023-02-23T06:11:29.278Z,21.33
2023-02-23T06:13:59.335Z,22.40
2023-02-23T06:16:28.564Z,24.93
2023-02-23T06:18:56.142Z,24.17
2023-02-23T06:21:23.535Z,24.10
2023-02-23T06:23:51.338Z,22.47
2023-02-23T06:26:18.851Z,22.93
2023-02-23T06:28:46.252Z,25.63
2023-02-23T06:31:13.856Z,21.23
2023-02-23T06:33:42.710Z,20.83
2023-02-23T06:36:10.789Z,21.30
2023-02-23T06:38:38.244Z,22.90
2023-02-23T06:41:10.072Z,23.40
2023-02-23T06:43:37.606Z,23.23
2023-02-23T06:46:06.270Z,24.67
2023-02-23T06:48:35.609Z,23.80
2023-02-23T06:51:04.570Z,23.83
2023-02-23T06:53:33.429Z,25.03
2023-02-23T06:56:01.516Z,24.70
2023-02-23T06:58:29.345Z,24.77
2023-02-23T07:00:58.847Z,24.53
2023-02-23T07:03:26.695Z,25.80
2023-02-23T07:05:54.575Z,27.43
2023-02-23T07:08:23.658Z,27.23
2023-02-23T07:10:51.310Z,25.53
2023-02-23T07:13:20.449Z,26.87
2023-02-23T07:15:48.378Z,26.23
2023-02-23T07:18:16.346Z,25.97
2023-02-23T07:20:44.157Z,26.10
2023-02-23T07:23:11.664Z,25.53
2023-02-23T07:25:40.506Z,26.10
2023-02-23T07:28:07.948Z,25.83
2023-02-23T07:30:35.428Z,26.23
2023-02-23T07:33:02.921Z,24.87
2023-02-23T07:35:30.346Z,27.67
2023-02-23T07:37:57.835Z,28.20
2023-02-23T07:40:25.585Z,25.93
2023-02-23T07:42:55.516Z,27.20
2023-02-23T07:45:24.865Z,27.33
2023-02-23T07:47:52.571Z,26.33
2023-02-23T07:50:20.117Z,28.13
2023-02-23T07:52:47.594Z,28.47
2023-02-23T07:55:15.134Z,29.67
2023-02-23T07:57:42.739Z,30.03
2023-02-23T08:00:13.037Z,32.87
2023-02-23T08:02:40.623Z,33.37
2023-02-23T08:05:08.539Z,34.73
2023-02-23T08:07:36.041Z,33.60
2023-02-23T08:10:03.519Z,33.53
2023-02-23T08:12:33.260Z,34.23
2023-02-23T08:15:01.004Z,35.43
2023-02-23T08:17:30.333Z,31.90
2023-02-23T08:19:57.849Z,30.17
2023-02-23T08:22:25.275Z,34.07
2023-02-23T08:24:53.829Z,31.80
2023-02-23T08:27:21.770Z,31.90
2023-02-23T08:29:49.327Z,30.43
2023-02-23T08:32:18.030Z,32.00
2023-02-23T08:34:47.018Z,29.77
2023-02-23T08:37:14.606Z,29.23
2023-02-23T08:39:43.615Z,30.47
2023-02-23T08:42:11.054Z,31.10
2023-02-23T08:44:38.535Z,30.10
2023-02-23T08:47:06.084Z,30.27
2023-02-23T08:49:33.601Z,29.90
2023-02-23T08:52:02.577Z,28.50
2023-02-23T08:54:30.552Z,29.73
2023-02-23T08:56:58.796Z,30.30
2023-02-23T08:59:27.100Z,29.07
2023-02-23T09:01:54.655Z,29.47
2023-02-23T09:04:22.356Z,30.33
2023-02-23T09:06:50.197Z,29.03
2023-02-23T09:09:19.099Z,28.47
2023-02-23T09:11:46.658Z,27.53
2023-02-23T09:14:14.104Z,27.13
2023-02-23T09:16:41.593Z,27.17
2023-02-23T09:19:09.067Z,26.70
2023-02-23T09:21:36.484Z,26.00
2023-02-23T09:24:04.075Z,23.97
2023-02-23T09:26:35.945Z,25.37
2023-02-23T09:29:03.791Z,24.97
2023-02-23T09:31:31.233Z,27.87
2023-02-23T09:34:00.268Z,25.47
2023-02-23T09:36:28.323Z,26.77
2023-02-23T09:38:57.608Z,27.83
2023-02-23T09:41:36.046Z,26.73
2023-02-23T09:44:08.388Z,27.10
2023-02-23T09:46:39.283Z,26.13
2023-02-23T09:49:12.759Z,27.67
2023-02-23T09:51:42.699Z,25.47
2023-02-23T09:54:11.859Z,26.40
2023-02-23T09:56:40.084Z,27.03
2023-02-23T09:59:14.292Z,27.90
2023-02-23T10:01:47.596Z,27.60
2023-02-23T10:04:18.122Z,26.30
2023-02-23T10:06:49.664Z,28.83
2023-02-23T10:09:20.461Z,27.83
2023-02-23T10:11:52.741Z,28.97
2023-02-23T10:14:38.034Z,28.43
2023-02-23T10:17:10.769Z,30.13
2023-02-23T10:19:44.431Z,29.83
2023-02-23T10:22:13.446Z,29.23
2023-02-23T10:24:43.656Z,26.50
2023-02-23T10:27:12.086Z,26.00
2023-02-23T10:29:43.065Z,24.10
2023-02-23T10:32:16.432Z,28.90
2023-02-23T10:34:45.103Z,31.00
2023-02-23T10:37:13.627Z,30.47
2023-02-23T10:39:42.091Z,32.27
2023-02-23T10:42:18.974Z,35.20
2023-02-23T10:44:47.996Z,34.40
2023-02-23T10:47:16.615Z,37.37
2023-02-23T10:49:45.925Z,34.90
2023-02-23T10:52:14.695Z,37.07
2023-02-23T10:54:47.537Z,37.23
2023-02-23T10:57:21.292Z,37.27
2023-02-23T11:00:15.931Z,37.37
2023-02-23T11:02:46.512Z,37.00
2023-02-23T11:05:28.811Z,37.53
2023-02-23T11:08:10.185Z,38.87
2023-02-23T11:10:37.719Z,40.93
2023-02-23T11:13:05.174Z,40.00
2023-02-23T11:15:49.089Z,39.93
2023-02-23T11:18:22.410Z,37.60
2023-02-23T11:20:50.411Z,40.73
2023-02-23T11:23:21.208Z,39.03
2023-02-23T11:25:49.584Z,40.57
2023-02-23T11:28:20.915Z,38.27
2023-02-23T11:30:48.781Z,37.67
2023-02-23T11:33:17.578Z,40.40
2023-02-23T11:35:46.825Z,42.57
2023-02-23T11:38:22.628Z,37.60
2023-02-23T11:40:59.697Z,40.13
2023-02-23T11:43:27.230Z,40.23
2023-02-23T11:45:56.519Z,40.90
2023-02-23T11:48:27.554Z,40.30
2023-02-23T11:50:57.129Z,39.97
2023-02-23T11:53:29.847Z,40.13
2023-02-23T11:56:02.643Z,38.40
2023-02-23T11:58:36.047Z,39.30
2023-02-23T12:01:11.142Z,39.43
2023-02-23T12:03:44.173Z,38.03
2023-02-23T12:06:13.050Z,37.30
2023-02-23T12:08:44.094Z,35.37
2023-02-23T12:11:13.536Z,38.90
2023-02-23T12:13:43.243Z,39.03
2023-02-23T12:16:14.089Z,38.37
2023-02-23T12:18:45.290Z,37.37
2023-02-23T12:21:24.449Z,36.93
2023-02-23T12:23:54.986Z,38.73
2023-02-23T12:26:26.656Z,37.07
2023-02-23T12:28:59.011Z,39.30
2023-02-23T12:31:28.758Z,35.63
2023-02-23T12:33:58.931Z,40.13
2023-02-23T12:36:33.344Z,40.93
2023-02-23T12:39:04.659Z,38.00
2023-02-23T12:41:37.215Z,40.43
2023-02-23T12:44:13.600Z,41.07
2023-02-23T12:46:47.574Z,40.03
2023-02-23T12:49:18.016Z,40.73
2023-02-23T12:51:52.313Z,40.50
2023-02-23T12:54:19.877Z,40.17
2023-02-23T12:56:56.497Z,39.90
2023-02-23T12:59:45.203Z,37.47
2023-02-23T13:02:16.409Z,40.03
2023-02-23T13:04:50.414Z,39.40
2023-02-23T13:07:21.826Z,38.53
2023-02-23T13:09:55.032Z,38.40
2023-02-23T13:12:28.566Z,38.80
2023-02-23T13:15:00.227Z,38.37
2023-02-23T13:17:37.718Z,39.33
2023-02-23T13:20:10.263Z,37.50
2023-02-23T13:22:43.774Z,38.20
2023-02-23T13:25:17.853Z,36.33
2023-02-23T13:27:48.968Z,34.80
2023-02-23T13:30:17.112Z,36.67
2023-02-23T13:32:45.814Z,35.23
2023-02-23T13:35:15.728Z,39.53
2023-02-23T13:37:48.105Z,34.80
2023-02-23T13:40:24.770Z,38.40
2023-02-23T13:43:00.105Z,38.33
2023-02-23T13:45:32.473Z,37.53
2023-02-23T13:48:03.702Z,38.80
2023-02-23T13:50:37.709Z,36.40
2023-02-23T13:53:08.911Z,36.90
2023-02-23T13:55:49.881Z,35.47
2023-02-23T13:58:20.051Z,37.33
2023-02-23T14:00:54.356Z,38.43
2023-02-23T14:03:24.293Z,38.20
2023-02-23T14:05:53.991Z,34.47
2023-02-23T14:08:27.224Z,33.77
2023-02-23T14:10:59.363Z,35.40
2023-02-23T14:13:28.821Z,35.27
2023-02-23T14:16:11.828Z,34.80
2023-02-23T14:18:51.867Z,35.23
2023-02-23T14:21:24.543Z,34.33
2023-02-23T14:23:55.712Z,34.50
2023-02-23T14:26:40.072Z,35.87
2023-02-23T14:29:26.609Z,36.27
2023-02-23T14:31:55.441Z,34.57
2023-02-23T14:34:24.001Z,34.17
2023-02-23T14:36:56.810Z,36.47
2023-02-23T14:39:27.002Z,37.60
2023-02-23T14:41:55.508Z,35.90
2023-02-23T14:44:30.014Z,33.50
2023-02-23T14:47:01.887Z,36.17
2023-02-23T14:49:32.485Z,37.00
2023-02-23T14:52:05.720Z,36.53
2023-02-23T14:54:35.710Z,39.20
2023-02-23T14:57:04.973Z,35.27
2023-02-23T14:59:37.811Z,37.40
2023-02-23T15:02:09.249Z,36.50
2023-02-23T15:04:39.807Z,35.90
2023-02-23T15:07:07.996Z,34.33
2023-02-23T15:09:39.335Z,36.53
2023-02-23T15:12:17.741Z,39.33
2023-02-23T15:14:51.008Z,39.00
2023-02-23T15:17:20.598Z,38.67
2023-02-23T15:19:50.010Z,37.53
2023-02-23T15:22:25.944Z,39.43
2023-02-23T15:24:57.103Z,33.80
2023-02-23T15:27:29.626Z,33.10
2023-02-23T15:29:57.211Z,33.00
2023-02-23T15:32:26.296Z,31.63
2023-02-23T15:34:55.532Z,30.63
2023-02-23T15:37:27.959Z,29.10
2023-02-23T15:39:59.748Z,27.17
2023-02-23T15:42:39.913Z,26.70
2023-02-23T15:45:15.883Z,21.47
2023-02-23T15:47:43.724Z,19.13
2023-02-23T15:50:34.911Z,20.13
2023-02-23T15:53:08.857Z,16.97
2023-02-23T15:55:38.756Z,17.33
2023-02-23T15:58:15.859Z,16.53
2023-02-23T16:00:44.280Z,14.73
2023-02-23T16:03:23.587Z,17.63
2023-02-23T16:05:55.930Z,17.90
2023-02-23T16:08:25.343Z,17.13
2023-02-23T16:10:57.579Z,16.77
2023-02-23T16:13:25.285Z,18.23
2023-02-23T16:15:54.951Z,17.63
2023-02-23T16:18:23.745Z,18.33
2023-02-23T16:20:56.341Z,17.37
2023-02-23T16:23:33.796Z,19.37
2023-02-23T16:26:10.160Z,19.63
2023-02-23T16:28:42.723Z,19.00
2023-02-23T16:31:14.175Z,19.33
2023-02-23T16:33:42.774Z,22.60
2023-02-23T16:36:16.031Z,20.40
2023-02-23T16:38:48.788Z,20.03
2023-02-23T16:41:21.360Z,18.97
2023-02-23T16:43:51.291Z,18.10
2023-02-23T16:46:19.807Z,20.10
2023-02-23T16:48:48.200Z,26.07
2023-02-23T16:51:16.730Z,22.93
2023-02-23T16:53:44.841Z,22.20
2023-02-23T16:56:15.168Z,22.70
2023-02-23T16:58:45.323Z,22.03
2023-02-23T17:01:14.566Z,20.83
2023-02-23T17:03:52.718Z,21.37
2023-02-23T17:06:20.921Z,21.43
2023-02-23T17:08:57.506Z,21.67
2023-02-23T17:11:26.471Z,22.70
2023-02-23T17:13:56.614Z,20.77
2023-02-23T17:16:27.917Z,20.27
2023-02-23T17:18:55.421Z,21.10
2023-02-23T17:21:24.059Z,21.20
2023-02-23T17:23:52.062Z,19.50
2023-02-23T17:26:21.091Z,19.50
2023-02-23T17:28:49.246Z,19.97
2023-02-23T17:31:20.574Z,20.10
2023-02-23T17:33:48.870Z,20.37
2023-02-23T17:36:17.447Z,20.40
2023-02-23T17:38:45.212Z,17.70
2023-02-23T17:41:14.300Z,20.53
2023-02-23T17:43:42.035Z,20.80
2023-02-23T17:46:09.841Z,18.90
2023-02-23T17:48:40.794Z,20.70
2023-02-23T17:51:10.225Z,20.73
2023-02-23T17:53:37.721Z,20.27
2023-02-23T17:56:06.247Z,20.47
2023-02-23T17:58:33.820Z,20.63
2023-02-23T18:01:02.137Z,20.43
2023-02-23T18:03:31.773Z,22.33
2023-02-23T18:06:01.804Z,22.47
2023-02-23T18:08:29.451Z,29.77
2023-02-23T18:10:59.158Z,23.07
2023-02-23T18:13:27.215Z,22.63
2023-02-23T18:15:55.548Z,21.20
2023-02-23T18:18:23.901Z,20.90
2023-02-23T18:20:52.041Z,21.00
2023-02-23T18:23:22.626Z,20.53
2023-02-23T18:25:50.789Z,20.10
2023-02-23T18:28:18.675Z,20.20
2023-02-23T18:30:46.255Z,19.03
2023-02-23T18:33:14.340Z,19.23
2023-02-23T18:35:44.858Z,19.47
2023-02-23T18:38:13.991Z,26.73
2023-02-23T18:40:43.079Z,19.77
2023-02-23T18:43:11.107Z,19.23
2023-02-23T18:45:38.734Z,17.10
2023-02-23T18:48:10.110Z,16.53
2023-02-23T18:50:37.843Z,16.20
2023-02-23T18:53:06.225Z,15.27
2023-02-23T18:55:33.687Z,16.30
2023-02-23T18:58:05.015Z,16.23
2023-02-23T19:00:37.067Z,15.67
2023-02-23T19:03:04.669Z,15.13
2023-02-23T19:05:33.232Z,13.83
2023-02-23T19:08:00.761Z,13.13
2023-02-23T19:10:28.864Z,134.03
2023-02-23T19:12:56.294Z,12.40
2023-02-23T19:15:25.470Z,12.23
2023-02-23T19:17:54.618Z,12.30
2023-02-23T19:20:23.125Z,13.20
2023-02-23T19:22:50.616Z,12.93
2023-02-23T19:25:18.705Z,12.27
2023-02-23T19:27:46.182Z,12.90
2023-02-23T19:30:14.823Z,13.20
2023-02-23T19:32:44.224Z,12.03
2023-02-23T19:35:15.029Z,13.13
2023-02-23T19:37:47.458Z,13.80
2023-02-23T19:40:19.624Z,13.47
2023-02-23T19:42:47.578Z,13.70
2023-02-23T19:45:15.170Z,14.90
2023-02-23T19:47:44.408Z,12.83
2023-02-23T19:50:13.608Z,13.83
2023-02-23T19:52:44.531Z,14.03
2023-02-23T19:55:12.824Z,12.90
2023-02-23T19:57:40.289Z,13.27
2023-02-23T20:00:12.102Z,12.57
2023-02-23T20:02:42.680Z,14.23
2023-02-23T20:05:11.845Z,21.63
2023-02-23T20:07:41.772Z,13.77
2023-02-23T20:10:13.865Z,14.43
2023-02-23T20:12:44.311Z,13.63
2023-02-23T20:15:14.777Z,12.93
2023-02-23T20:17:42.543Z,11.57
2023-02-23T20:20:10.999Z,11.20
2023-02-23T20:22:41.301Z,10.73
2023-02-23T20:25:15.515Z,10.07
2023-02-23T20:27:43.965Z,10.00
2023-02-23T20:30:12.791Z,9.53
2023-02-23T20:32:40.592Z,11.47
2023-02-23T20:35:11.298Z,9.87
2023-02-23T20:37:40.157Z,10.40
2023-02-23T20:40:17.859Z,10.73
2023-02-23T20:42:47.814Z,11.00
2023-02-23T20:45:17.215Z,10.80
2023-02-23T20:47:45.783Z,10.80
2023-02-23T20:50:13.885Z,10.73
2023-02-23T20:52:45.889Z,10.70
2023-02-23T20:55:27.212Z,9.70
2023-02-23T20:57:55.426Z,10.27
2023-02-23T21:00:24.569Z,10.37
2023-02-23T21:02:55.488Z,10.33
2023-02-23T21:05:27.395Z,10.90
2023-02-23T21:08:00.011Z,10.33
2023-02-23T21:10:30.215Z,10.43
2023-02-23T21:12:58.769Z,10.20
2023-02-23T21:15:27.377Z,10.33
2023-02-23T21:17:55.229Z,11.07
2023-02-23T21:20:23.203Z,10.40
2023-02-23T21:22:51.173Z,9.53
2023-02-23T21:25:21.095Z,10.63
2023-02-23T21:27:49.781Z,9.67
2023-02-23T21:30:20.030Z,10.03
2023-02-23T21:32:47.885Z,10.00
2023-02-23T21:35:17.517Z,10.43
2023-02-23T21:37:45.255Z,9.43
2023-02-23T21:40:17.639Z,10.97
2023-02-23T21:42:50.822Z,9.87
2023-02-23T21:45:18.904Z,9.97
2023-02-23T21:47:47.841Z,9.87
2023-02-23T21:50:17.880Z,9.37
2023-02-23T21:52:46.913Z,11.33
2023-02-23T21:55:21.129Z,11.03
2023-02-23T21:57:51.141Z,10.50
2023-02-23T22:00:19.162Z,10.70
2023-02-23T22:02:47.709Z,10.10
2023-02-23T22:05:16.305Z,10.47
2023-02-23T22:07:48.237Z,12.47
2023-02-23T22:10:15.731Z,10.73
2023-02-23T22:12:43.307Z,11.10
2023-02-23T22:15:12.813Z,11.80
2023-02-23T22:17:40.238Z,11.33
2023-02-23T22:20:08.417Z,11.00
2023-02-23T22:22:36.353Z,10.40
2023-02-23T22:25:04.865Z,10.50
2023-02-23T22:27:33.003Z,11.03
2023-02-23T22:30:01.725Z,11.03
2023-02-23T22:32:32.939Z,11.70
2023-02-23T22:35:00.881Z,13.07
2023-02-23T22:37:29.930Z,13.77
2023-02-23T22:39:58.435Z,12.43
2023-02-23T22:42:29.260Z,12.40
2023-02-23T22:44:56.988Z,14.33
2023-02-23T22:47:24.523Z,19.53
2023-02-23T22:49:53.483Z,18.80
2023-02-23T22:52:21.951Z,15.67
2023-02-23T22:54:50.767Z,15.43
2023-02-23T22:57:18.131Z,13.10
2023-02-23T22:59:54.618Z,12.43
2023-02-23T23:02:22.732Z,12.03
2023-02-23T23:04:50.239Z,12.87
2023-02-23T23:07:20.194Z,13.23
2023-02-23T23:09:51.811Z,11.30
2023-02-23T23:12:19.242Z,13.30
2023-02-23T23:14:47.738Z,13.57
2023-02-23T23:17:15.474Z,11.13
2023-02-23T23:19:42.913Z,13.83
2023-02-23T23:22:14.461Z,13.90
2023-02-23T23:24:46.117Z,13.37
2023-02-23T23:27:16.110Z,13.57
2023-02-23T23:29:46.625Z,13.57
2023-02-23T23:32:17.833Z,14.77
2023-02-23T23:34:47.292Z,13.87
2023-02-23T23:37:15.322Z,12.97
2023-02-23T23:39:44.590Z,12.97
2023-02-23T23:42:12.297Z,10.33
2023-02-23T23:44:39.762Z,8.73
2023-02-23T23:47:08.105Z,8.00
2023-02-23T23:49:38.098Z,6.47
2023-02-23T23:52:06.104Z,6.70
2023-02-23T23:54:34.414Z,6.10
2023-02-23T23:57:03.219Z,6.73
2023-02-23T23:59:31.725Z,7.53
